createdAt,value
2023-12-10T00:01:23.795Z,3.88
2023-12-10T00:03:50.358Z,3.74
2023-12-10T00:06:16.845Z,3.50
2023-12-10T00:08:43.228Z,3.91
2023-12-10T00:11:09.558Z,3.63
2023-12-10T00:13:35.917Z,3.85
2023-12-10T00:16:02.247Z,3.61
2023-12-10T00:18:28.734Z,3.71
2023-12-10T00:20:55.428Z,4.31
2023-12-10T00:23:21.736Z,4.10
2023-12-10T00:25:48.082Z,4.10
2023-12-10T00:28:14.436Z,3.98
2023-12-10T00:30:40.752Z,3.87
2023-12-10T00:33:07.207Z,3.90
2023-12-10T00:35:33.681Z,3.60
2023-12-10T00:37:59.995Z,3.81
2023-12-10T00:40:26.319Z,3.61
2023-12-10T00:42:52.700Z,3.71
2023-12-10T00:45:19.114Z,3.59
2023-12-10T00:47:45.537Z,3.02
2023-12-10T00:50:11.956Z,3.70
2023-12-10T00:52:38.287Z,3.95
2023-12-10T00:55:04.623Z,3.65
2023-12-10T00:57:31.129Z,4.14
2023-12-10T00:59:57.490Z,3.30
2023-12-10T01:02:23.919Z,3.65
2023-12-10T01:04:50.392Z,3.57
2023-12-10T01:07:16.743Z,3.57
2023-12-10T01:09:43.054Z,3.55
2023-12-10T01:12:09.527Z,3.48
2023-12-10T01:14:35.934Z,3.14
2023-12-10T01:17:02.240Z,3.43
2023-12-10T01:19:28.694Z,3.54
2023-12-10T01:21:55.083Z,3.39
2023-12-10T01:24:21.405Z,3.72
2023-12-10T01:26:47.749Z,3.76
2023-12-10T01:29:14.062Z,3.83
2023-12-10T01:31:40.364Z,3.68
2023-12-10T01:34:06.939Z,3.84
2023-12-10T01:36:33.346Z,3.72
2023-12-10T01:38:59.653Z,3.82
2023-12-10T01:41:26.106Z,4.15
2023-12-10T01:43:52.413Z,3.86
2023-12-10T01:46:18.741Z,3.92
2023-12-10T01:48:45.142Z,4.13
2023-12-10T01:51:11.528Z,4.32
2023-12-10T01:53:37.851Z,5.07
2023-12-10T01:56:04.279Z,4.23
2023-12-10T01:58:30.594Z,4.03
2023-12-10T02:00:56.991Z,4.18
2023-12-10T02:03:23.549Z,4.21
2023-12-10T02:05:49.980Z,3.81
2023-12-10T02:08:16.337Z,3.65
2023-12-10T02:10:42.754Z,3.69
2023-12-10T02:13:09.061Z,3.69
2023-12-10T02:15:35.415Z,3.32
2023-12-10T02:18:01.839Z,3.53
2023-12-10T02:20:28.163Z,3.54
2023-12-10T02:22:54.461Z,3.46
2023-12-10T02:25:20.848Z,2.98
2023-12-10T02:27:47.211Z,3.12
2023-12-10T02:30:13.538Z,3.22
2023-12-10T02:32:39.947Z,3.38
2023-12-10T02:35:06.265Z,3.66
2023-12-10T02:37:32.573Z,3.64
2023-12-10T02:39:58.897Z,3.61
2023-12-10T02:42:25.239Z,3.33
2023-12-10T02:44:51.600Z,3.18
2023-12-10T02:47:17.941Z,3.07
2023-12-10T02:49:44.323Z,3.05
2023-12-10T02:52:10.747Z,3.10
2023-12-10T02:54:37.190Z,3.21
2023-12-10T02:57:03.505Z,3.19
2023-12-10T02:59:29.824Z,2.95
2023-12-10T03:01:56.316Z,2.95
2023-12-10T03:04:22.640Z,3.32
2023-12-10T03:06:49.008Z,3.11
2023-12-10T03:09:15.396Z,2.81
2023-12-10T03:11:41.710Z,3.20
2023-12-10T03:14:09.366Z,3.16
2023-12-10T03:16:36.928Z,2.40
2023-12-10T03:19:03.371Z,2.68
2023-12-10T03:21:29.764Z,2.50
2023-12-10T03:23:56.234Z,3.26
2023-12-10T03:26:22.545Z,3.23
2023-12-10T03:28:48.946Z,3.27
2023-12-10T03:31:15.321Z,3.47
2023-12-10T03:33:41.766Z,3.37
2023-12-10T03:36:08.205Z,2.81
2023-12-10T03:38:34.575Z,3.00
2023-12-10T03:41:00.891Z,2.96
2023-12-10T03:43:27.200Z,3.27
2023-12-10T03:45:53.632Z,2.60
2023-12-10T03:48:20.120Z,2.78
2023-12-10T03:50:46.505Z,3.06
2023-12-10T03:53:12.922Z,3.06
2023-12-10T03:55:39.241Z,3.05
2023-12-10T03:58:05.565Z,3.03
2023-12-10T04:00:32.008Z,3.17
2023-12-10T04:02:58.386Z,2.98
2023-12-10T04:05:24.770Z,3.04
2023-12-10T04:07:51.191Z,3.09
2023-12-10T04:10:17.492Z,2.61
2023-12-10T04:12:43.889Z,3.18
2023-12-10T04:15:10.224Z,3.05
2023-12-10T04:17:36.658Z,3.12
2023-12-10T04:20:03.147Z,2.43
2023-12-10T04:22:29.855Z,2.89
2023-12-10T04:24:56.423Z,3.24
2023-12-10T04:27:22.815Z,2.92
2023-12-10T04:29:49.374Z,3.15
2023-12-10T04:32:15.680Z,3.04
2023-12-10T04:34:42.105Z,2.87
2023-12-10T04:37:08.617Z,2.99
2023-12-10T04:39:34.948Z,2.54
2023-12-10T04:42:01.313Z,2.64
2023-12-10T04:44:27.748Z,2.85
2023-12-10T04:46:54.060Z,2.70
2023-12-10T04:49:20.611Z,2.54
2023-12-10T04:51:47.227Z,2.55
2023-12-10T04:54:13.591Z,2.37
2023-12-10T04:56:39.943Z,2.52
2023-12-10T04:59:06.300Z,2.64
2023-12-10T05:01:32.656Z,2.80
2023-12-10T05:03:59.078Z,3.11
2023-12-10T05:06:25.697Z,3.34
2023-12-10T05:08:52.030Z,2.77
2023-12-10T05:11:18.343Z,2.80
2023-12-10T05:13:44.879Z,2.92
2023-12-10T05:16:11.186Z,2.80
2023-12-10T05:18:37.714Z,2.76
2023-12-10T05:21:04.122Z,3.17
2023-12-10T05:23:30.418Z,2.88
2023-12-10T05:25:56.745Z,2.57
2023-12-10T05:28:23.096Z,2.72
2023-12-10T05:30:49.468Z,2.97
2023-12-10T05:33:15.961Z,3.06
2023-12-10T05:35:42.465Z,3.02
2023-12-10T05:38:08.776Z,3.27
2023-12-10T05:40:35.085Z,3.02
2023-12-10T05:43:01.493Z,3.26
2023-12-10T05:45:27.831Z,3.26
2023-12-10T05:47:54.301Z,3.34
2023-12-10T05:50:21.181Z,3.18
2023-12-10T05:52:47.484Z,3.12
2023-12-10T05:55:13.791Z,3.27
2023-12-10T05:57:40.208Z,3.46
2023-12-10T06:00:06.544Z,3.32
2023-12-10T06:02:32.872Z,3.30
2023-12-10T06:04:59.224Z,3.25
2023-12-10T06:07:25.560Z,4.12
2023-12-10T06:09:51.967Z,3.82
2023-12-10T06:12:18.421Z,3.58
2023-12-10T06:14:44.763Z,3.50
2023-12-10T06:17:11.164Z,3.13
2023-12-10T06:19:37.770Z,3.36
2023-12-10T06:22:04.227Z,3.49
2023-12-10T06:24:30.664Z,3.72
2023-12-10T06:26:57.045Z,3.44
2023-12-10T06:29:23.358Z,3.33
2023-12-10T06:31:49.774Z,3.66
2023-12-10T06:34:16.288Z,3.17
2023-12-10T06:36:42.748Z,3.89
2023-12-10T06:39:09.102Z,3.48
2023-12-10T06:41:35.729Z,3.77
2023-12-10T06:44:02.092Z,3.15
2023-12-10T06:46:28.434Z,3.48
2023-12-10T06:48:54.865Z,4.27
2023-12-10T06:51:21.282Z,3.50
2023-12-10T06:53:47.615Z,3.81
2023-12-10T06:56:14.115Z,3.83
2023-12-10T06:58:40.433Z,4.10
2023-12-10T07:01:06.865Z,4.32
2023-12-10T07:03:33.681Z,3.78
2023-12-10T07:06:00.376Z,3.97
2023-12-10T07:08:26.932Z,3.76
2023-12-10T07:10:53.362Z,3.55
2023-12-10T07:13:19.674Z,3.81
2023-12-10T07:15:46.021Z,4.05
2023-12-10T07:18:12.486Z,3.49
2023-12-10T07:20:38.832Z,4.01
2023-12-10T07:23:05.141Z,3.92
2023-12-10T07:25:33.181Z,3.75
2023-12-10T07:27:59.586Z,3.85
2023-12-10T07:30:25.969Z,3.71
2023-12-10T07:32:52.384Z,3.37
2023-12-10T07:35:18.699Z,3.25
2023-12-10T07:37:45.070Z,3.66
2023-12-10T07:40:11.437Z,3.57
2023-12-10T07:42:37.796Z,3.90
2023-12-10T07:45:04.143Z,3.96
2023-12-10T07:47:30.517Z,3.45
2023-12-10T07:49:56.900Z,3.57
2023-12-10T07:52:23.426Z,3.39
2023-12-10T07:54:49.783Z,3.03
2023-12-10T07:57:16.143Z,3.36
2023-12-10T07:59:42.488Z,3.20
2023-12-10T08:02:08.826Z,3.43
2023-12-10T08:04:35.156Z,3.70
2023-12-10T08:07:01.502Z,3.59
2023-12-10T08:09:27.831Z,3.86
2023-12-10T08:11:54.148Z,4.67
2023-12-10T08:14:20.480Z,5.87
2023-12-10T08:16:46.926Z,7.00
2023-12-10T08:19:13.351Z,5.58
2023-12-10T08:21:39.791Z,5.80
2023-12-10T08:24:06.155Z,4.97
2023-12-10T08:26:32.464Z,3.35
2023-12-10T08:28:59.263Z,2.95
2023-12-10T08:31:25.585Z,2.96
2023-12-10T08:33:52.063Z,2.75
2023-12-10T08:36:18.517Z,3.29
2023-12-10T08:38:44.890Z,3.51
2023-12-10T08:41:11.259Z,3.91
2023-12-10T08:43:37.608Z,3.78
2023-12-10T08:46:03.985Z,3.06
2023-12-10T08:48:30.643Z,2.95
2023-12-10T08:50:57.039Z,3.28
2023-12-10T08:53:23.398Z,3.45
2023-12-10T08:55:49.822Z,3.28
2023-12-10T08:58:16.171Z,3.22
2023-12-10T09:00:42.615Z,3.77
2023-12-10T09:03:08.997Z,3.55
2023-12-10T09:05:35.416Z,3.24
2023-12-10T09:08:01.840Z,3.33
2023-12-10T09:10:28.190Z,3.41
2023-12-10T09:12:54.682Z,3.77
2023-12-10T09:15:21.090Z,3.63
2023-12-10T09:17:47.511Z,3.37
2023-12-10T09:20:14.000Z,3.35
2023-12-10T09:22:40.367Z,3.47
2023-12-10T09:25:06.681Z,3.48
2023-12-10T09:27:33.066Z,3.52
2023-12-10T09:29:59.462Z,3.66
2023-12-10T09:32:25.813Z,3.47
2023-12-10T09:34:52.278Z,3.45
2023-12-10T09:37:18.694Z,3.38
2023-12-10T09:39:45.057Z,3.97
2023-12-10T09:42:11.435Z,4.00
2023-12-10T09:44:37.762Z,3.62
2023-12-10T09:47:04.092Z,3.47
2023-12-10T09:49:30.477Z,3.28
2023-12-10T09:51:56.872Z,3.52
2023-12-10T09:54:23.209Z,2.94
2023-12-10T09:56:49.559Z,2.98
2023-12-10T09:59:15.977Z,3.18
2023-12-10T10:01:42.348Z,3.24
2023-12-10T10:04:08.836Z,3.94
2023-12-10T10:06:35.863Z,4.89
2023-12-10T10:09:02.921Z,4.36
2023-12-10T10:11:29.245Z,3.68
2023-12-10T10:13:55.569Z,3.14
2023-12-10T10:16:22.038Z,3.00
2023-12-10T10:18:48.494Z,3.28
2023-12-10T10:21:14.882Z,3.42
2023-12-10T10:23:41.252Z,3.30
2023-12-10T10:26:07.586Z,3.36
2023-12-10T10:28:34.290Z,3.39
2023-12-10T10:31:00.618Z,3.45
2023-12-10T10:33:27.087Z,3.60
2023-12-10T10:35:53.556Z,3.43
2023-12-10T10:38:19.913Z,3.35
2023-12-10T10:40:46.466Z,3.85
2023-12-10T10:43:12.840Z,3.47
2023-12-10T10:45:39.652Z,3.68
2023-12-10T10:48:06.123Z,4.08
2023-12-10T10:50:32.516Z,4.08
2023-12-10T10:52:58.894Z,3.53
2023-12-10T10:55:25.206Z,3.40
2023-12-10T10:57:51.604Z,3.57
2023-12-10T11:00:18.103Z,3.17
2023-12-10T11:02:44.564Z,3.21
2023-12-10T11:05:10.925Z,3.36
2023-12-10T11:07:37.321Z,3.42
2023-12-10T11:10:03.724Z,3.41
2023-12-10T11:12:30.071Z,3.54
2023-12-10T11:14:56.401Z,3.13
2023-12-10T11:17:22.726Z,3.24
2023-12-10T11:19:49.226Z,3.14
2023-12-10T11:22:15.573Z,2.76
2023-12-10T11:24:41.913Z,3.06
2023-12-10T11:27:08.376Z,3.07
2023-12-10T11:29:34.703Z,3.10
2023-12-10T11:32:01.049Z,2.97
2023-12-10T11:34:27.448Z,3.03
2023-12-10T11:36:53.980Z,3.20
2023-12-10T11:39:20.352Z,3.05
2023-12-10T11:41:56.246Z,3.25
2023-12-10T11:44:29.361Z,2.73
2023-12-10T11:46:58.121Z,2.97
2023-12-10T11:49:25.010Z,3.30
2023-12-10T11:51:51.475Z,3.02
2023-12-10T11:54:17.888Z,3.08
2023-12-10T11:56:44.247Z,3.19
2023-12-10T11:59:12.629Z,3.02
2023-12-10T12:01:39.571Z,2.81
2023-12-10T12:04:06.052Z,3.06
2023-12-10T12:06:32.592Z,2.99
2023-12-10T12:08:58.935Z,3.04
2023-12-10T12:11:25.258Z,3.01
2023-12-10T12:13:51.592Z,3.16
2023-12-10T12:16:18.188Z,2.99
2023-12-10T12:18:44.720Z,3.20
2023-12-10T12:21:11.086Z,3.26
2023-12-10T12:23:37.395Z,3.36
2023-12-10T12:26:03.715Z,3.27
2023-12-10T12:28:30.014Z,2.76
2023-12-10T12:30:56.369Z,2.91
2023-12-10T12:33:22.844Z,2.82
2023-12-10T12:35:49.311Z,2.85
2023-12-10T12:38:15.627Z,2.71
2023-12-10T12:40:41.949Z,2.98
2023-12-10T12:43:08.364Z,2.98
2023-12-10T12:45:34.776Z,2.99
2023-12-10T12:48:01.338Z,3.20
2023-12-10T12:50:27.694Z,2.91
2023-12-10T12:52:54.371Z,2.67
2023-12-10T12:55:20.795Z,2.83
2023-12-10T12:57:47.153Z,3.07
2023-12-10T13:00:13.601Z,3.13
2023-12-10T13:02:39.924Z,2.73
2023-12-10T13:05:06.320Z,2.77
2023-12-10T13:07:32.805Z,2.54
2023-12-10T13:10:01.846Z,2.61
2023-12-10T13:12:29.750Z,2.73
2023-12-10T13:14:56.086Z,2.66
2023-12-10T13:17:22.436Z,3.14
2023-12-10T13:19:48.805Z,2.91
2023-12-10T13:22:15.218Z,3.13
2023-12-10T13:24:41.590Z,2.76
2023-12-10T13:27:07.936Z,2.97
2023-12-10T13:29:34.414Z,2.95
2023-12-10T13:32:00.732Z,2.97
2023-12-10T13:34:27.123Z,3.07
2023-12-10T13:36:53.515Z,3.03
2023-12-10T13:39:19.985Z,3.01
2023-12-10T13:41:46.532Z,2.77
2023-12-10T13:44:13.756Z,2.88
2023-12-10T13:46:41.424Z,2.89
2023-12-10T13:49:07.766Z,2.89
2023-12-10T13:51:34.196Z,2.93
2023-12-10T13:54:00.646Z,3.09
2023-12-10T13:56:26.956Z,3.07
2023-12-10T13:58:53.272Z,2.83
2023-12-10T14:01:19.699Z,3.39
2023-12-10T14:03:46.172Z,3.26
2023-12-10T14:06:12.866Z,3.35
2023-12-10T14:08:39.207Z,3.14
2023-12-10T14:11:05.518Z,2.79
2023-12-10T14:13:31.856Z,2.83
2023-12-10T14:15:58.176Z,2.88
2023-12-10T14:18:24.613Z,2.92
2023-12-10T14:20:51.080Z,3.39
2023-12-10T14:23:17.566Z,3.36
2023-12-10T14:25:45.020Z,3.08
2023-12-10T14:28:11.779Z,3.22
2023-12-10T14:30:38.179Z,2.94
2023-12-10T14:33:04.644Z,3.27
2023-12-10T14:35:31.185Z,3.10
2023-12-10T14:37:57.523Z,2.82
2023-12-10T14:40:23.846Z,3.04
2023-12-10T14:42:50.228Z,2.84
2023-12-10T14:45:16.775Z,2.90
2023-12-10T14:47:43.444Z,3.07
2023-12-10T14:50:09.865Z,3.17
2023-12-10T14:52:36.202Z,3.11
2023-12-10T14:55:02.563Z,3.13
2023-12-10T14:57:29.143Z,3.24
2023-12-10T14:59:55.692Z,3.00
2023-12-10T15:02:22.094Z,3.44
2023-12-10T15:04:48.427Z,3.58
2023-12-10T15:07:14.841Z,3.46
2023-12-10T15:09:41.216Z,4.41
2023-12-10T15:12:07.564Z,3.84
2023-12-10T15:14:33.869Z,4.09
2023-12-10T15:17:00.227Z,3.72
2023-12-10T15:19:26.608Z,3.48
2023-12-10T15:21:52.995Z,2.91
2023-12-10T15:24:19.413Z,3.04
2023-12-10T15:26:45.752Z,3.05
2023-12-10T15:29:12.071Z,3.10
2023-12-10T15:31:38.390Z,3.20
2023-12-10T15:34:04.826Z,3.04
2023-12-10T15:36:31.290Z,3.12
2023-12-10T15:38:57.632Z,3.29
2023-12-10T15:41:24.036Z,3.09
2023-12-10T15:43:50.361Z,3.27
2023-12-10T15:46:16.692Z,3.02
2023-12-10T15:48:43.258Z,3.18
2023-12-10T15:51:09.707Z,3.19
2023-12-10T15:53:36.185Z,3.11
2023-12-10T15:56:02.523Z,3.18
2023-12-10T15:58:28.863Z,3.18
2023-12-10T16:00:55.385Z,3.60
2023-12-10T16:03:21.845Z,3.39
2023-12-10T16:05:48.368Z,3.27
2023-12-10T16:08:14.766Z,3.66
2023-12-10T16:10:41.106Z,3.50
2023-12-10T16:13:07.472Z,3.46
2023-12-10T16:15:34.050Z,3.40
2023-12-10T16:18:00.493Z,3.62
2023-12-10T16:20:26.868Z,3.40
2023-12-10T16:22:53.219Z,3.91
2023-12-10T16:25:19.905Z,3.87
2023-12-10T16:27:46.383Z,3.25
2023-12-10T16:30:12.856Z,3.42
2023-12-10T16:32:39.228Z,3.33
2023-12-10T16:35:05.664Z,3.42
2023-12-10T16:37:32.168Z,3.81
2023-12-10T16:39:58.606Z,3.96
2023-12-10T16:42:24.957Z,4.39
2023-12-10T16:44:51.300Z,6.37
2023-12-10T16:47:17.771Z,5.25
2023-12-10T16:49:45.634Z,3.53
2023-12-10T16:52:13.148Z,3.33
2023-12-10T16:54:39.569Z,3.33
2023-12-10T16:57:05.930Z,3.21
2023-12-10T16:59:32.304Z,2.98
2023-12-10T17:01:58.621Z,3.29
2023-12-10T17:04:25.116Z,3.21
2023-12-10T17:06:51.515Z,3.09
2023-12-10T17:09:17.854Z,3.36
2023-12-10T17:11:44.209Z,3.28
2023-12-10T17:14:10.544Z,3.98
2023-12-10T17:16:36.856Z,4.47
2023-12-10T17:19:03.407Z,4.56
2023-12-10T17:21:29.913Z,3.96
2023-12-10T17:23:56.244Z,4.25
2023-12-10T17:26:22.562Z,4.02
2023-12-10T17:28:48.918Z,3.18
2023-12-10T17:31:15.258Z,3.67
2023-12-10T17:33:41.742Z,4.06
2023-12-10T17:36:08.112Z,3.61
2023-12-10T17:38:34.427Z,3.66
2023-12-10T17:41:00.913Z,3.66
2023-12-10T17:43:27.254Z,3.42
2023-12-10T17:45:53.605Z,3.90
2023-12-10T17:48:20.004Z,4.01
2023-12-10T17:50:46.423Z,3.89
2023-12-10T17:53:12.863Z,3.15
2023-12-10T17:55:39.199Z,2.88
2023-12-10T17:58:05.553Z,3.52
2023-12-10T18:00:31.940Z,3.35
2023-12-10T18:02:58.285Z,3.03
2023-12-10T18:05:24.775Z,3.30
2023-12-10T18:07:51.116Z,4.00
2023-12-10T18:10:17.466Z,3.56
2023-12-10T18:12:43.810Z,3.36
2023-12-10T18:15:10.161Z,3.34
2023-12-10T18:17:36.742Z,3.61
2023-12-10T18:20:03.269Z,4.08
2023-12-10T18:22:29.657Z,7.25
2023-12-10T18:24:56.044Z,7.09
2023-12-10T18:27:22.427Z,6.82
2023-12-10T18:29:48.786Z,7.08
2023-12-10T18:32:15.109Z,5.82
2023-12-10T18:34:41.454Z,8.14
2023-12-10T18:37:07.860Z,8.04
2023-12-10T18:39:34.249Z,5.26
2023-12-10T18:42:00.594Z,4.95
2023-12-10T18:44:26.920Z,6.42
2023-12-10T18:46:53.271Z,6.28
2023-12-10T18:49:19.681Z,4.60
2023-12-10T18:51:46.104Z,4.55
2023-12-10T18:54:12.437Z,5.53
2023-12-10T18:56:38.749Z,5.50
2023-12-10T18:59:05.147Z,4.07
2023-12-10T19:01:31.561Z,4.47
2023-12-10T19:03:57.949Z,3.95
2023-12-10T19:06:24.317Z,4.52
2023-12-10T19:08:50.657Z,4.60
2023-12-10T19:11:17.131Z,4.97
2023-12-10T19:13:43.475Z,3.71
2023-12-10T19:16:09.864Z,3.28
2023-12-10T19:18:36.331Z,3.13
2023-12-10T19:21:02.741Z,3.00
2023-12-10T19:23:29.209Z,2.95
2023-12-10T19:25:55.518Z,3.19
2023-12-10T19:28:21.894Z,3.66
2023-12-10T19:30:48.360Z,5.46
2023-12-10T19:33:14.734Z,4.52
2023-12-10T19:35:41.137Z,4.22
2023-12-10T19:38:07.455Z,4.66
2023-12-10T19:40:33.769Z,4.52
2023-12-10T19:43:00.093Z,4.23
2023-12-10T19:45:26.494Z,4.65
2023-12-10T19:47:52.976Z,5.03
2023-12-10T19:50:19.357Z,4.78
2023-12-10T19:52:45.690Z,3.80
2023-12-10T19:55:12.008Z,3.75
2023-12-10T19:57:38.348Z,3.39
2023-12-10T20:00:04.713Z,3.67
2023-12-10T20:02:31.228Z,3.15
2023-12-10T20:04:57.710Z,3.53
2023-12-10T20:07:24.136Z,3.38
2023-12-10T20:09:50.488Z,6.15
2023-12-10T20:12:16.819Z,4.33
2023-12-10T20:14:43.144Z,3.37
2023-12-10T20:17:09.465Z,3.53
2023-12-10T20:19:35.967Z,3.25
2023-12-10T20:22:02.406Z,3.16
2023-12-10T20:24:34.776Z,3.50
2023-12-10T20:27:03.166Z,3.72
2023-12-10T20:29:29.571Z,3.17
2023-12-10T20:31:55.936Z,2.85
2023-12-10T20:34:29.776Z,2.86
2023-12-10T20:36:59.485Z,3.01
2023-12-10T20:39:25.895Z,2.85
2023-12-10T20:41:52.244Z,2.59
2023-12-10T20:44:18.625Z,2.47
2023-12-10T20:46:45.014Z,2.71
2023-12-10T20:49:11.452Z,2.48
2023-12-10T20:51:37.834Z,2.84
2023-12-10T20:54:04.169Z,2.94
2023-12-10T20:56:30.497Z,2.61
2023-12-10T20:58:56.842Z,2.41
2023-12-10T21:01:23.313Z,2.35
2023-12-10T21:03:49.742Z,2.11
2023-12-10T21:06:16.184Z,2.20
2023-12-10T21:08:42.564Z,2.08
2023-12-10T21:11:08.914Z,1.91
2023-12-10T21:13:35.242Z,1.51
2023-12-10T21:16:01.564Z,1.44
2023-12-10T21:18:28.106Z,1.29
2023-12-10T21:20:54.507Z,1.27
2023-12-10T21:23:20.867Z,1.26
2023-12-10T21:25:47.167Z,1.17
2023-12-10T21:28:13.527Z,1.24
2023-12-10T21:30:39.891Z,1.26
2023-12-10T21:33:06.290Z,1.18
2023-12-10T21:35:32.640Z,1.01
2023-12-10T21:37:58.951Z,1.05
2023-12-10T21:40:25.280Z,1.20
2023-12-10T21:42:51.609Z,1.21
2023-12-10T21:45:17.922Z,1.13
2023-12-10T21:47:44.310Z,1.34
2023-12-10T21:50:10.683Z,1.21
2023-12-10T21:52:37.095Z,1.29
2023-12-10T21:55:03.515Z,1.10
2023-12-10T21:57:30.097Z,1.14
2023-12-10T21:59:56.641Z,1.23
2023-12-10T22:02:22.935Z,1.29
2023-12-10T22:04:49.403Z,1.53
2023-12-10T22:07:16.115Z,1.11
2023-12-10T22:09:42.677Z,1.26
2023-12-10T22:12:09.222Z,1.15
2023-12-10T22:14:35.569Z,1.38
2023-12-10T22:17:01.992Z,1.39
2023-12-10T22:19:28.563Z,1.37
2023-12-10T22:21:55.311Z,1.48
2023-12-10T22:24:21.920Z,1.46
2023-12-10T22:26:48.504Z,1.46
2023-12-10T22:29:15.238Z,1.51
2023-12-10T22:31:41.839Z,1.43
2023-12-10T22:34:08.561Z,1.39
2023-12-10T22:36:35.469Z,1.48
2023-12-10T22:39:01.999Z,1.58
2023-12-10T22:41:28.650Z,1.52
2023-12-10T22:43:55.216Z,1.75
2023-12-10T22:46:21.610Z,1.49
2023-12-10T22:48:48.144Z,1.47
2023-12-10T22:51:14.598Z,1.62
2023-12-10T22:53:41.004Z,1.53
2023-12-10T22:56:07.362Z,1.52
2023-12-10T22:58:33.804Z,1.70
2023-12-10T23:01:00.268Z,1.70
2023-12-10T23:03:26.723Z,1.71
2023-12-10T23:05:53.182Z,1.69
2023-12-10T23:08:19.553Z,1.52
2023-12-10T23:10:45.892Z,1.62
2023-12-10T23:13:12.334Z,1.65
2023-12-10T23:15:38.686Z,1.69
2023-12-10T23:18:05.289Z,1.54
2023-12-10T23:20:31.804Z,1.69
2023-12-10T23:22:58.149Z,1.97
2023-12-10T23:25:24.536Z,1.99
2023-12-10T23:27:50.970Z,1.83
2023-12-10T23:30:20.406Z,1.83
2023-12-10T23:32:51.204Z,1.90
2023-12-10T23:35:17.709Z,1.70
2023-12-10T23:37:44.032Z,1.67
2023-12-10T23:40:10.398Z,1.63
2023-12-10T23:42:36.875Z,1.72
2023-12-10T23:45:03.192Z,1.66
2023-12-10T23:47:29.747Z,1.92
2023-12-10T23:49:56.394Z,1.60
2023-12-10T23:52:22.729Z,1.81
2023-12-10T23:54:49.073Z,1.57
2023-12-10T23:57:15.404Z,1.61
2023-12-10T23:59:41.816Z,1.86
